Time;durP1;ratioP1;P1;durP2;ratioP2;P2;SDS_P1;SDS_P2;PMS_P1;PMS_P2;Temp;Humidity;BMP_temperature;BMP_pressure;BME280_temperature;BME280_humidity;BME280_pressure;Samples;Min_cycle;Max_cycle;Signal;HPM_P1;HPM_P2
2023/01/18 00:01:34;;;;;;;;;;;20.30;36.20;;;;;;5114550;28;19919;-68
2023/01/18 00:04:00;;;;;;;;;;;20.80;35.30;;;;;;5096627;28;20290;-68
2023/01/18 00:06:26;;;;;;;;;;;21.20;34.60;;;;;;5096280;28;19920;-69
2023/01/18 00:08:53;;;;;;;;;;;21.60;34.00;;;;;;5096354;28;20371;-69
2023/01/18 00:11:18;;;;;;;;;;;21.80;33.50;;;;;;5130416;27;20010;-70
2023/01/18 00:13:44;;;;;;;;;;;22.10;33.20;;;;;;5114319;28;20022;-69
2023/01/18 00:16:11;;;;;;;;;;;22.40;32.90;;;;;;5129604;27;20028;-70
2023/01/18 00:18:37;;;;;;;;;;;22.50;32.70;;;;;;5130520;27;19926;-72
2023/01/18 00:21:03;;;;;;;;;;;22.60;32.40;;;;;;5130527;27;20006;-71
2023/01/18 00:23:29;;;;;;;;;;;22.70;32.30;;;;;;5114652;28;19926;-72
2023/01/18 00:26:03;;;;;;;;;;;22.90;32.20;;;;;;5096286;28;19919;-73
2023/01/18 00:28:32;;;;;;;;;;;22.90;32.00;;;;;;5095786;28;20014;-73
2023/01/18 00:30:57;;;;;;;;;;;23.10;31.90;;;;;;5114346;28;19993;-71
2023/01/18 00:33:23;;;;;;;;;;;23.10;31.80;;;;;;5095782;28;19928;-73
2023/01/18 00:35:56;;;;;;;;;;;23.20;31.80;;;;;;5095726;28;20319;-71
2023/01/18 00:38:22;;;;;;;;;;;23.20;31.60;;;;;;5095101;28;20033;-73
2023/01/18 00:40:47;;;;;;;;;;;23.20;31.60;;;;;;5095645;28;20368;-73
2023/01/18 00:43:44;;;;;;;;;;;23.20;31.60;;;;;;5095925;28;20024;-72
2023/01/18 00:45:58;;;;;;;;;;;23.20;31.60;;;;;;5095353;28;20358;-73
2023/01/18 00:48:24;;;;;;;;;;;23.20;31.60;;;;;;5095805;28;19926;-72
2023/01/18 00:50:50;;;;;;;;;;;23.20;31.60;;;;;;5095531;28;20286;-72
2023/01/18 00:53:15;;;;;;;;;;;23.20;31.60;;;;;;5095298;28;19969;-72
2023/01/18 00:55:41;;;;;;;;;;;23.20;31.60;;;;;;5095386;28;20336;-73
2023/01/18 00:58:06;;;;;;;;;;;23.20;31.70;;;;;;5095470;28;19927;-72
2023/01/18 01:00:32;;;;;;;;;;;23.10;31.80;;;;;;5113573;28;19919;-73
2023/01/18 01:02:57;;;;;;;;;;;23.10;31.90;;;;;;5112471;28;20286;-72
2023/01/18 01:08:15;;;;;;;;;;;23.00;31.90;;;;;;5094825;28;19923;-72
2023/01/18 01:10:41;;;;;;;;;;;22.90;32.00;;;;;;5113361;28;19926;-73
2023/01/18 01:26:57;;;;;;;;;;;22.80;32.30;;;;;;5094653;28;19920;-72
2023/01/18 01:29:23;;;;;;;;;;;22.70;32.20;;;;;;5113268;28;19930;-72
2023/01/18 01:31:48;;;;;;;;;;;22.70;32.30;;;;;;5095118;28;20263;-72
2023/01/18 01:34:14;;;;;;;;;;;22.60;32.20;;;;;;5112873;28;19924;-68
2023/01/18 01:36:39;;;;;;;;;;;22.70;32.20;;;;;;5112340;28;19920;-69
2023/01/18 01:39:07;;;;;;;;;;;22.70;32.20;;;;;;5094464;28;19927;-69
2023/01/18 01:41:33;;;;;;;;;;;22.70;32.20;;;;;;5095211;28;19943;-70
2023/01/18 01:44:03;;;;;;;;;;;22.80;33.00;;;;;;5112873;28;19920;-70
2023/01/18 01:51:54;;;;;;;;;;;22.80;32.10;;;;;;5127778;27;1861100;-71
2023/01/18 01:54:26;;;;;;;;;;;22.90;32.10;;;;;;5174355;27;19957;-69
2023/01/18 01:56:54;;;;;;;;;;;22.90;32.00;;;;;;5174646;27;19979;-69
2023/01/18 01:59:20;;;;;;;;;;;22.90;32.00;;;;;;5174333;27;19933;-74
2023/01/18 02:01:46;;;;;;;;;;;22.80;32.00;;;;;;5174572;27;19919;-71
2023/01/18 02:04:12;;;;;;;;;;;22.80;32.00;;;;;;5174228;27;19925;-71
2023/01/18 02:06:38;;;;;;;;;;;22.80;32.00;;;;;;5174506;27;19923;-71
2023/01/18 02:09:06;;;;;;;;;;;22.80;32.10;;;;;;5174125;27;19922;-71
2023/01/18 02:11:32;;;;;;;;;;;22.80;32.10;;;;;;5173994;27;19945;-72
2023/01/18 02:14:00;;;;;;;;;;;22.80;32.10;;;;;;5174358;27;20357;-72
2023/01/18 02:16:33;;;;;;;;;;;22.70;32.10;;;;;;5174310;27;19919;-71
2023/01/18 02:19:18;;;;;;;;;;;22.70;32.20;;;;;;5174301;27;19918;-72
2023/01/18 02:21:47;;;;;;;;;;;22.60;32.20;;;;;;5173813;27;19929;-73
2023/01/18 02:24:33;;;;;;;;;;;22.60;32.30;;;;;;5173920;27;20416;-73
2023/01/18 02:27:02;;;;;;;;;;;22.60;32.30;;;;;;5173870;27;19919;-73
2023/01/18 02:29:36;;;;;;;;;;;22.50;32.30;;;;;;5173924;27;19963;-71
2023/01/18 02:32:21;;;;;;;;;;;22.50;32.40;;;;;;5173933;27;20293;-73
2023/01/18 02:34:52;;;;;;;;;;;22.50;32.40;;;;;;5192505;27;19919;-73
2023/01/18 02:37:38;;;;;;;;;;;22.50;32.40;;;;;;5192370;27;19990;-71
2023/01/18 02:48:20;;;;;;;;;;;22.50;32.30;;;;;;5109004;28;19942;-72
2023/01/18 02:50:45;;;;;;;;;;;22.60;32.30;;;;;;5108897;28;20470;-72
2023/01/18 02:53:12;;;;;;;;;;;22.60;32.40;;;;;;5108707;28;20006;-73
2023/01/18 03:01:00;;;;;;;;;;;22.60;32.40;;;;;;5110250;27;19940;-73
2023/01/18 03:03:26;;;;;;;;;;;22.60;32.40;;;;;;5108830;28;19926;-73
2023/01/18 03:05:54;;;;;;;;;;;22.50;32.40;;;;;;5109159;28;20275;-72
2023/01/18 03:08:23;;;;;;;;;;;22.50;32.40;;;;;;5109140;28;19920;-73
2023/01/18 03:10:59;;;;;;;;;;;22.50;32.40;;;;;;5108789;28;20425;-73
2023/01/18 03:13:29;;;;;;;;;;;22.50;32.50;;;;;;5110056;28;20340;-71
2023/01/18 03:16:00;;;;;;;;;;;22.40;32.40;;;;;;5108775;28;19920;-73
2023/01/18 03:18:34;;;;;;;;;;;22.50;32.40;;;;;;5108833;28;19920;-72
2023/01/18 03:21:04;;;;;;;;;;;22.50;32.40;;;;;;5110025;28;19928;-72
2023/01/18 03:23:41;;;;;;;;;;;22.50;32.40;;;;;;5109337;28;20406;-69
2023/01/18 03:26:09;;;;;;;;;;;22.60;32.30;;;;;;5108835;28;20019;-72
2023/01/18 03:37:00;;;;;;;;;;;22.60;32.20;;;;;;5130805;27;20018;-68
2023/01/18 03:39:29;;;;;;;;;;;22.60;32.10;;;;;;5129587;28;20406;-68
2023/01/18 03:41:58;;;;;;;;;;;22.60;32.20;;;;;;5129744;28;20369;-68
2023/01/18 03:44:28;;;;;;;;;;;22.60;32.20;;;;;;5123252;28;20207;-68
2023/01/18 03:46:54;;;;;;;;;;;22.60;32.20;;;;;;5108900;28;19959;-68
2023/01/18 03:49:20;;;;;;;;;;;22.60;32.20;;;;;;5108865;28;19931;-69
2023/01/18 03:57:26;;;;;;;;;;;22.50;32.20;;;;;;5110266;27;20303;-68
2023/01/18 03:59:52;;;;;;;;;;;22.50;32.20;;;;;;5109111;28;20026;-68
2023/01/18 04:02:19;;;;;;;;;;;22.50;32.30;;;;;;5108849;28;20489;-68
2023/01/18 04:04:44;;;;;;;;;;;22.50;32.20;;;;;;5109033;28;20105;-68
2023/01/18 04:07:10;;;;;;;;;;;22.50;32.20;;;;;;5108141;28;20018;-70
2023/01/18 04:09:38;;;;;;;;;;;22.50;32.20;;;;;;5108777;28;19920;-71
2023/01/18 04:12:04;;;;;;;;;;;22.50;32.20;;;;;;5109020;28;19920;-68
2023/01/18 04:14:29;;;;;;;;;;;22.50;32.20;;;;;;5108598;28;20302;-70
2023/01/18 04:16:55;;;;;;;;;;;22.50;32.20;;;;;;5108536;28;19928;-68
2023/01/18 04:19:20;;;;;;;;;;;22.50;32.20;;;;;;5109707;28;19924;-69
2023/01/18 04:21:46;;;;;;;;;;;22.50;32.30;;;;;;5108837;28;20473;-68
2023/01/18 04:24:12;;;;;;;;;;;22.50;32.20;;;;;;5108547;28;19927;-69
2023/01/18 04:26:37;;;;;;;;;;;22.50;32.20;;;;;;5108619;28;19931;-70
2023/01/18 04:29:03;;;;;;;;;;;22.50;32.20;;;;;;5109871;28;19965;-68
2023/01/18 04:31:29;;;;;;;;;;;22.50;32.20;;;;;;5108608;28;19975;-68
2023/01/18 04:33:54;;;;;;;;;;;22.50;32.20;;;;;;5109751;28;20279;-68
2023/01/18 04:36:21;;;;;;;;;;;22.50;32.10;;;;;;5108248;28;19931;-68
2023/01/18 04:38:50;;;;;;;;;;;22.50;32.10;;;;;;5142825;27;19927;-68
2023/01/18 04:41:16;;;;;;;;;;;22.50;32.10;;;;;;5109418;28;19920;-73
2023/01/18 04:43:41;;;;;;;;;;;22.50;32.00;;;;;;5109420;28;19973;-71
2023/01/18 04:46:07;;;;;;;;;;;22.50;32.00;;;;;;5108121;28;19920;-72
2023/01/18 04:48:32;;;;;;;;;;;22.50;32.00;;;;;;5109207;28;19920;-69
2023/01/18 04:50:58;;;;;;;;;;;22.50;32.00;;;;;;5109070;28;20426;-68
2023/01/18 04:53:23;;;;;;;;;;;22.50;32.00;;;;;;5109256;28;20003;-72
2023/01/18 04:55:49;;;;;;;;;;;22.50;32.00;;;;;;5107541;28;20015;-68
2023/01/18 04:58:17;;;;;;;;;;;22.50;32.00;;;;;;5107743;28;19920;-68
2023/01/18 05:00:43;;;;;;;;;;;22.50;32.00;;;;;;5109094;28;19927;-68
2023/01/18 05:03:10;;;;;;;;;;;22.50;31.90;;;;;;5108075;28;19924;-68
2023/01/18 05:05:35;;;;;;;;;;;22.60;32.00;;;;;;5108948;28;19924;-68
2023/01/18 05:08:01;;;;;;;;;;;22.60;31.90;;;;;;5097889;28;20007;-70
2023/01/18 05:10:27;;;;;;;;;;;22.60;31.80;;;;;;5094372;28;19927;-68
2023/01/18 05:12:53;;;;;;;;;;;22.70;31.70;;;;;;5094098;28;19920;-72
2023/01/18 05:15:18;;;;;;;;;;;22.70;32.40;;;;;;5094154;28;19924;-68
2023/01/18 05:17:44;;;;;;;;;;;22.80;31.60;;;;;;5094159;28;19924;-68
2023/01/18 05:20:10;;;;;;;;;;;22.80;31.50;;;;;;5093833;28;19920;-69
2023/01/18 05:22:36;;;;;;;;;;;22.80;31.40;;;;;;5093888;28;19920;-68
2023/01/18 05:25:02;;;;;;;;;;;22.90;31.40;;;;;;5095065;28;19927;-68
2023/01/18 05:27:28;;;;;;;;;;;22.90;31.40;;;;;;5128212;27;19963;-68
2023/01/18 05:29:53;;;;;;;;;;;22.90;31.20;;;;;;5094066;28;20378;-68
2023/01/18 05:32:19;;;;;;;;;;;23.00;31.20;;;;;;5094797;28;20337;-72
2023/01/18 05:34:44;;;;;;;;;;;23.00;31.20;;;;;;5094830;28;20267;-71
2023/01/18 05:37:10;;;;;;;;;;;23.00;31.10;;;;;;5093358;28;19924;-72
2023/01/18 05:39:35;;;;;;;;;;;23.00;31.10;;;;;;5093843;28;19946;-68
2023/01/18 05:42:01;;;;;;;;;;;23.00;31.00;;;;;;5094813;28;19920;-72
2023/01/18 05:44:26;;;;;;;;;;;23.00;31.00;;;;;;5093380;28;19965;-68
2023/01/18 05:46:52;;;;;;;;;;;23.00;31.00;;;;;;5093606;28;20014;-72
2023/01/18 05:49:17;;;;;;;;;;;22.90;31.00;;;;;;5093531;28;19924;-73
2023/01/18 05:51:43;;;;;;;;;;;22.90;31.10;;;;;;5093222;28;19920;-71
2023/01/18 05:54:08;;;;;;;;;;;22.90;31.10;;;;;;5093410;28;19930;-69
2023/01/18 05:56:34;;;;;;;;;;;22.90;31.20;;;;;;5108222;28;20409;-72
2023/01/18 05:59:00;;;;;;;;;;;22.80;31.10;;;;;;5096616;28;19969;-73
2023/01/18 06:01:25;;;;;;;;;;;22.80;31.20;;;;;;5096490;28;20517;-71
2023/01/18 06:03:51;;;;;;;;;;;22.80;31.20;;;;;;5096404;28;19924;-72
2023/01/18 06:06:16;;;;;;;;;;;22.70;31.20;;;;;;5096347;28;19927;-72
2023/01/18 06:08:42;;;;;;;;;;;22.70;31.20;;;;;;5096541;28;19924;-71
2023/01/18 06:11:08;;;;;;;;;;;22.70;31.20;;;;;;5096528;28;19941;-69
2023/01/18 06:13:36;;;;;;;;;;;22.70;31.50;;;;;;5094826;28;19920;-68
2023/01/18 06:16:02;;;;;;;;;;;22.70;31.30;;;;;;5114366;28;20017;-73
2023/01/18 06:18:28;;;;;;;;;;;22.60;31.30;;;;;;5113791;28;20359;-72
2023/01/18 06:20:56;;;;;;;;;;;22.60;31.20;;;;;;5096035;28;19970;-71
2023/01/18 06:23:22;;;;;;;;;;;22.60;31.20;;;;;;5114177;28;19923;-71
2023/01/18 06:25:47;;;;;;;;;;;22.60;31.20;;;;;;5096013;28;19958;-69
2023/01/18 06:28:13;;;;;;;;;;;22.60;31.20;;;;;;5114297;28;19923;-68
2023/01/18 06:30:39;;;;;;;;;;;22.60;31.20;;;;;;5114242;28;20366;-68
2023/01/18 06:33:06;;;;;;;;;;;22.60;31.30;;;;;;5096062;28;20371;-68
2023/01/18 06:35:32;;;;;;;;;;;22.60;31.20;;;;;;5095724;28;20382;-69
2023/01/18 06:37:58;;;;;;;;;;;22.60;31.20;;;;;;5114437;28;20207;-72
2023/01/18 06:40:24;;;;;;;;;;;22.50;31.30;;;;;;5094721;28;20393;-72
2023/01/18 06:42:49;;;;;;;;;;;22.50;31.20;;;;;;5093772;28;19927;-71
2023/01/18 06:45:18;;;;;;;;;;;22.60;31.20;;;;;;5092012;28;20006;-70
2023/01/18 06:47:44;;;;;;;;;;;22.60;31.00;;;;;;5111275;28;20305;-67
2023/01/18 06:50:10;;;;;;;;;;;22.50;30.60;;;;;;5084871;28;19923;-71
2023/01/18 06:52:36;;;;;;;;;;;22.30;30.70;;;;;;5088942;28;19935;-70
2023/01/18 06:55:01;;;;;;;;;;;22.00;30.90;;;;;;5106856;28;19920;-70
2023/01/18 06:57:27;;;;;;;;;;;22.00;32.10;;;;;;5089366;28;19923;-70
2023/01/18 06:59:53;;;;;;;;;;;21.90;31.50;;;;;;5090216;28;20593;-71
2023/01/18 07:02:19;;;;;;;;;;;22.00;31.60;;;;;;5075165;28;19931;-70
2023/01/18 07:04:45;;;;;;;;;;;22.00;31.50;;;;;;5076752;28;19981;-70
2023/01/18 07:07:11;;;;;;;;;;;22.10;31.50;;;;;;5077105;28;20329;-69
2023/01/18 07:09:40;;;;;;;;;;;22.40;31.30;;;;;;5072674;28;19920;-68
2023/01/18 07:12:06;;;;;;;;;;;22.50;31.00;;;;;;5082279;28;19923;-64
2023/01/18 07:14:31;;;;;;;;;;;22.70;30.70;;;;;;5064764;28;19958;-71
2023/01/18 07:16:57;;;;;;;;;;;23.00;30.60;;;;;;5090856;28;20018;-69
2023/01/18 07:19:25;;;;;;;;;;;23.20;30.00;;;;;;5092381;28;19959;-71
2023/01/18 07:21:52;;;;;;;;;;;23.20;30.00;;;;;;5070606;28;19920;-71
2023/01/18 07:24:18;;;;;;;;;;;23.30;30.00;;;;;;5095154;27;19950;-72
2023/01/18 07:26:44;;;;;;;;;;;23.30;29.90;;;;;;5107047;27;20050;-72
2023/01/18 07:29:09;;;;;;;;;;;23.20;29.80;;;;;;5089720;28;20286;-71
2023/01/18 07:31:37;;;;;;;;;;;23.00;29.90;;;;;;5092810;27;20259;-71
2023/01/18 07:34:03;;;;;;;;;;;22.80;30.00;;;;;;5077331;28;19920;-68
2023/01/18 07:36:28;;;;;;;;;;;22.50;30.00;;;;;;5074090;28;19928;-68
2023/01/18 07:38:54;;;;;;;;;;;22.40;30.00;;;;;;5091860;28;20295;-74
2023/01/18 07:41:23;;;;;;;;;;;22.40;30.10;;;;;;5071118;28;19920;-75
2023/01/18 07:43:48;;;;;;;;;;;22.40;30.60;;;;;;5064838;28;20038;-75
2023/01/18 07:46:15;;;;;;;;;;;22.40;30.60;;;;;;5079612;28;20023;-69
2023/01/18 07:48:41;;;;;;;;;;;22.60;30.70;;;;;;5104244;27;20403;-74
2023/01/18 07:51:08;;;;;;;;;;;22.90;30.40;;;;;;5107521;27;20013;-77
2023/01/18 07:53:34;;;;;;;;;;;23.30;30.20;;;;;;5094694;28;20381;-78
2023/01/18 07:56:01;;;;;;;;;;;23.60;30.10;;;;;;5074221;28;19928;-74
2023/01/18 07:58:26;;;;;;;;;;;23.60;30.00;;;;;;5070535;28;19920;-74
2023/01/18 08:00:52;;;;;;;;;;;23.70;30.00;;;;;;5073522;28;19989;-74
2023/01/18 08:03:19;;;;;;;;;;;23.40;30.00;;;;;;5069854;28;19931;-76
2023/01/18 08:05:45;;;;;;;;;;;23.60;30.10;;;;;;5073271;28;20129;-79
2023/01/18 08:08:12;;;;;;;;;;;23.30;30.00;;;;;;5075849;28;19943;-75
2023/01/18 08:10:38;;;;;;;;;;;22.90;30.30;;;;;;5069978;28;20598;-74
2023/01/18 08:13:04;;;;;;;;;;;22.60;30.80;;;;;;5092109;28;20483;-76
2023/01/18 08:15:30;;;;;;;;;;;22.40;31.10;;;;;;5069615;28;20858;-77
2023/01/18 08:17:59;;;;;;;;;;;22.20;31.40;;;;;;5087379;28;19998;-71
2023/01/18 08:20:25;;;;;;;;;;;22.10;31.60;;;;;;5075863;28;20007;-81
2023/01/18 08:22:55;;;;;;;;;;;22.00;31.70;;;;;;5071494;28;19924;-74
2023/01/18 08:25:21;;;;;;;;;;;21.90;31.80;;;;;;5092210;28;19970;-71
2023/01/18 08:27:46;;;;;;;;;;;21.90;31.80;;;;;;5091558;28;19928;-83
2023/01/18 08:30:12;;;;;;;;;;;21.80;31.90;;;;;;5070383;28;19927;-72
2023/01/18 08:32:37;;;;;;;;;;;21.60;32.30;;;;;;5102368;28;20674;-72
2023/01/18 08:35:03;;;;;;;;;;;21.50;32.40;;;;;;5075597;28;19924;-74
2023/01/18 08:37:29;;;;;;;;;;;21.40;32.60;;;;;;5070268;28;20015;-72
2023/01/18 08:39:54;;;;;;;;;;;21.30;32.70;;;;;;5071851;28;19950;-74
2023/01/18 08:42:20;;;;;;;;;;;21.10;32.80;;;;;;5091234;28;19946;-76
2023/01/18 08:44:47;;;;;;;;;;;20.90;33.00;;;;;;5076544;28;19950;-75
2023/01/18 08:47:14;;;;;;;;;;;20.80;33.30;;;;;;5079490;28;19924;-74
2023/01/18 08:49:39;;;;;;;;;;;20.60;33.60;;;;;;5071144;28;19968;-74
2023/01/18 08:52:05;;;;;;;;;;;20.40;33.80;;;;;;5071998;28;19932;-82
2023/01/18 08:54:31;;;;;;;;;;;20.50;34.10;;;;;;5074036;28;19928;-81
2023/01/18 08:56:56;;;;;;;;;;;21.00;34.10;;;;;;5090128;28;20482;-80
2023/01/18 08:59:22;;;;;;;;;;;21.40;33.60;;;;;;5080432;28;20345;-76
2023/01/18 09:01:48;;;;;;;;;;;21.90;32.80;;;;;;5069358;28;19946;-80
2023/01/18 09:04:13;;;;;;;;;;;22.60;32.50;;;;;;5096508;28;19931;-77
2023/01/18 09:06:39;;;;;;;;;;;23.00;31.70;;;;;;5079324;28;20295;-77
2023/01/18 09:09:05;;;;;;;;;;;23.40;31.00;;;;;;5096014;28;20017;-81
2023/01/18 09:11:30;;;;;;;;;;;23.70;30.30;;;;;;5092828;28;19949;-74
2023/01/18 09:13:58;;;;;;;;;;;23.80;30.00;;;;;;5085382;28;20018;-80
2023/01/18 09:16:23;;;;;;;;;;;23.80;30.00;;;;;;5082456;28;20028;-80
2023/01/18 09:18:49;;;;;;;;;;;23.80;30.10;;;;;;5078493;28;20429;-73
2023/01/18 09:21:16;;;;;;;;;;;23.80;30.10;;;;;;5099277;28;20350;-78
2023/01/18 09:23:47;;;;;;;;;;;23.90;30.00;;;;;;5100705;28;19920;-73
2023/01/18 09:26:17;;;;;;;;;;;23.90;29.70;;;;;;5077879;28;19924;-84
2023/01/18 09:28:44;;;;;;;;;;;24.00;29.70;;;;;;5099572;28;20354;-78
2023/01/18 09:31:11;;;;;;;;;;;23.90;29.80;;;;;;5081869;28;20018;-74
2023/01/18 09:33:37;;;;;;;;;;;23.90;29.90;;;;;;5078007;28;20282;-74
2023/01/18 09:36:04;;;;;;;;;;;24.10;29.90;;;;;;5073262;28;19928;-79
2023/01/18 09:38:30;;;;;;;;;;;24.20;29.90;;;;;;5071742;28;19934;-78
2023/01/18 09:40:57;;;;;;;;;;;24.30;29.80;;;;;;5074065;28;19924;-71
2023/01/18 09:43:27;;;;;;;;;;;24.50;29.80;;;;;;5112068;27;19920;-78
2023/01/18 09:45:52;;;;;;;;;;;24.50;29.80;;;;;;5076265;28;19920;-75
2023/01/18 09:48:26;;;;;;;;;;;24.40;30.00;;;;;;5076946;28;19934;-74
2023/01/18 09:50:52;;;;;;;;;;;24.50;30.00;;;;;;5090701;28;19928;-76
2023/01/18 09:58:47;;;;;;;;;;;23.80;30.30;;;;;;5086513;27;20381;-76
2023/01/18 10:01:15;;;;;;;;;;;23.40;30.90;;;;;;5086054;28;19932;-77
2023/01/18 10:03:45;;;;;;;;;;;23.00;31.40;;;;;;5090222;28;20045;-75
2023/01/18 10:06:14;;;;;;;;;;;22.80;31.80;;;;;;5088293;28;19934;-73
2023/01/18 10:09:00;;;;;;;;;;;22.60;32.10;;;;;;5085646;28;20415;-75
2023/01/18 10:16:59;;;;;;;;;;;22.20;32.80;;;;;;5086492;27;20475;-74
2023/01/18 10:19:28;;;;;;;;;;;22.00;32.90;;;;;;5089021;28;19924;-70
2023/01/18 10:21:58;;;;;;;;;;;21.90;33.20;;;;;;5085689;28;19927;-69
2023/01/18 10:24:44;;;;;;;;;;;21.70;33.40;;;;;;5122470;27;19931;-75
2023/01/18 10:27:24;;;;;;;;;;;21.60;33.70;;;;;;5081986;28;19931;-81
2023/01/18 10:32:35;;;;;;;;;;;21.10;34.20;;;;;;5082539;27;1871417;-76
2023/01/18 10:35:05;;;;;;;;;;;20.90;34.60;;;;;;5132543;27;20391;-76
2023/01/18 10:37:37;;;;;;;;;;;20.70;35.00;;;;;;5136592;27;20450;-73
2023/01/18 10:40:04;;;;;;;;;;;20.50;35.20;;;;;;5131858;27;19948;-80
2023/01/18 10:42:39;;;;;;;;;;;20.30;35.50;;;;;;5131529;27;20381;-73
2023/01/18 10:45:11;;;;;;;;;;;20.20;35.80;;;;;;5129733;27;20374;-73
2023/01/18 10:47:36;;;;;;;;;;;20.10;36.30;;;;;;5148206;27;19923;-76
2023/01/18 10:50:10;;;;;;;;;;;20.00;36.80;;;;;;5133568;27;19919;-72
2023/01/18 10:52:36;;;;;;;;;;;19.90;37.20;;;;;;5130054;27;19987;-77
2023/01/18 10:55:06;;;;;;;;;;;19.80;37.60;;;;;;5137763;27;20351;-76
2023/01/18 11:02:59;;;;;;;;;;;19.50;38.50;;;;;;5091818;27;19934;-75
2023/01/18 11:10:58;;;;;;;;;;;19.30;39.00;;;;;;5067084;27;19920;-74
2023/01/18 11:16:19;;;;;;;;;;;19.20;39.20;;;;;;5071370;27;19920;-71
2023/01/18 11:21:44;;;;;;;;;;;19.10;39.20;;;;;;5082122;27;19942;-74
2023/01/18 11:24:13;;;;;;;;;;;19.10;39.30;;;;;;5092396;28;19958;-77
2023/01/18 11:26:57;;;;;;;;;;;19.00;39.50;;;;;;5083454;28;19928;-71
2023/01/18 11:29:26;;;;;;;;;;;19.00;39.60;;;;;;5079073;28;19924;-72
2023/01/18 11:31:53;;;;;;;;;;;18.90;39.50;;;;;;5076204;28;20011;-71
2023/01/18 11:34:25;;;;;;;;;;;18.90;39.60;;;;;;5086540;28;19920;-72
2023/01/18 11:36:51;;;;;;;;;;;19.40;39.80;;;;;;5075874;28;19931;-74
2023/01/18 11:39:18;;;;;;;;;;;20.10;39.10;;;;;;5081626;28;20764;-72
2023/01/18 11:41:44;;;;;;;;;;;20.90;37.90;;;;;;5082947;28;19931;-71
2023/01/18 11:44:15;;;;;;;;;;;21.60;36.70;;;;;;5074017;28;20412;-73
2023/01/18 11:46:43;;;;;;;;;;;22.40;35.50;;;;;;5078709;28;21046;-72
2023/01/18 11:51:58;;;;;;;;;;;23.90;33.40;;;;;;5083253;27;19946;-71
2023/01/18 11:54:29;;;;;;;;;;;24.50;32.50;;;;;;5071976;28;19939;-68
2023/01/18 11:56:58;;;;;;;;;;;24.90;31.70;;;;;;5076721;28;20534;-71
2023/01/18 11:59:29;;;;;;;;;;;25.10;31.20;;;;;;5060555;28;19921;-74
2023/01/18 12:02:15;;;;;;;;;;;25.40;31.00;;;;;;5056665;28;20536;-70
2023/01/18 12:05:03;;;;;;;;;;;25.80;30.10;;;;;;5056313;28;19960;-70
2023/01/18 12:07:48;;;;;;;;;;;25.80;30.10;;;;;;5089173;28;20012;-68
2023/01/18 12:10:23;;;;;;;;;;;25.90;29.80;;;;;;5072779;28;20009;-68
2023/01/18 12:13:08;;;;;;;;;;;25.90;29.70;;;;;;5065925;28;20473;-69
2023/01/18 12:18:41;;;;;;;;;;;25.80;29.60;;;;;;5114576;27;19916;-71
2023/01/18 12:29:35;;;;;;;;;;;24.80;30.00;;;;;;5054006;27;2038249;-71
2023/01/18 12:34:54;;;;;;;;;;;24.60;30.50;;;;;;5107303;27;19922;-73
2023/01/18 12:37:39;;;;;;;;;;;24.50;30.00;;;;;;5096620;28;20386;-69
2023/01/18 12:42:57;;;;;;;;;;;23.80;30.30;;;;;;5090943;27;19930;-71
2023/01/18 12:45:31;;;;;;;;;;;23.70;30.60;;;;;;5075025;28;20370;-69
2023/01/18 12:48:03;;;;;;;;;;;23.80;30.70;;;;;;5083513;28;19924;-70
2023/01/18 12:50:30;;;;;;;;;;;23.90;30.70;;;;;;5079449;28;20389;-71
2023/01/18 12:52:58;;;;;;;;;;;24.10;30.60;;;;;;5081721;28;20321;-70
2023/01/18 12:55:24;;;;;;;;;;;24.10;30.40;;;;;;5081203;28;19925;-70
2023/01/18 12:57:52;;;;;;;;;;;24.30;30.40;;;;;;5081543;28;19920;-68
2023/01/18 13:00:39;;;;;;;;;;;24.60;30.00;;;;;;5075186;28;19927;-77
2023/01/18 13:03:22;;;;;;;;;;;24.70;29.90;;;;;;5078576;28;19935;-69
2023/01/18 13:05:53;;;;;;;;;;;24.90;29.90;;;;;;5082587;28;19927;-71
2023/01/18 13:11:18;;;;;;;;;;;25.20;29.90;;;;;;5093960;27;19912;-70
2023/01/18 13:13:45;;;;;;;;;;;25.20;29.90;;;;;;5073688;28;20011;-69
2023/01/18 13:16:16;;;;;;;;;;;25.20;30.00;;;;;;5074925;28;19928;-68
2023/01/18 13:21:26;;;;;;;;;;;25.00;30.20;;;;;;5095212;27;1938560;-67
2023/01/18 13:26:33;;;;;;;;;;;24.70;30.80;;;;;;5114794;27;1864172;-65
2023/01/18 13:29:18;;;;;;;;;;;24.50;31.10;;;;;;5141130;27;19919;-67
2023/01/18 13:31:44;;;;;;;;;;;24.20;31.10;;;;;;5142099;27;20006;-69
2023/01/18 13:34:30;;;;;;;;;;;23.90;31.20;;;;;;5139289;27;20052;-69
2023/01/18 13:36:56;;;;;;;;;;;23.70;31.50;;;;;;5154737;27;19942;-69
2023/01/18 13:39:22;;;;;;;;;;;23.40;31.70;;;;;;5128994;27;19994;-67
2023/01/18 13:42:06;;;;;;;;;;;23.20;32.00;;;;;;5134716;27;19926;-67
2023/01/18 13:44:42;;;;;;;;;;;22.90;32.10;;;;;;5146139;27;19927;-66
2023/01/18 13:47:30;;;;;;;;;;;22.80;32.00;;;;;;5136992;27;20578;-67
2023/01/18 13:49:56;;;;;;;;;;;22.50;32.00;;;;;;5136740;27;19919;-67
2023/01/18 13:55:30;;;;;;;;;;;22.10;32.00;;;;;;5104704;27;19924;-70
2023/01/18 13:57:56;;;;;;;;;;;21.90;32.20;;;;;;5093501;28;19923;-74
2023/01/18 14:00:23;;;;;;;;;;;21.90;32.60;;;;;;5098290;28;20007;-69
2023/01/18 14:02:53;;;;;;;;;;;21.70;32.60;;;;;;5092297;28;19963;-70
2023/01/18 14:05:22;;;;;;;;;;;21.60;32.70;;;;;;5098963;28;19920;-72
2023/01/18 14:07:53;;;;;;;;;;;21.50;32.90;;;;;;5105583;28;19919;-73
2023/01/18 14:10:35;;;;;;;;;;;21.50;33.10;;;;;;5095171;28;19967;-73
2023/01/18 14:13:02;;;;;;;;;;;21.40;33.30;;;;;;5095859;28;19924;-68
2023/01/18 14:21:13;;;;;;;;;;;21.00;33.80;;;;;;5084592;28;19917;-67
2023/01/18 14:23:53;;;;;;;;;;;20.80;33.80;;;;;;5083949;28;20280;-67
2023/01/18 14:26:19;;;;;;;;;;;20.70;34.00;;;;;;5083487;28;19920;-65
2023/01/18 14:31:29;;;;;;;;;;;20.50;34.30;;;;;;5105646;27;19948;-68
2023/01/18 14:33:55;;;;;;;;;;;20.50;34.40;;;;;;5085351;28;19920;-70
2023/01/18 14:36:21;;;;;;;;;;;20.40;34.40;;;;;;5082832;28;19931;-70
2023/01/18 14:39:11;;;;;;;;;;;20.40;34.50;;;;;;5082857;28;19975;-70
2023/01/18 14:41:37;;;;;;;;;;;20.40;34.60;;;;;;5116044;28;19920;-70
2023/01/18 14:44:02;;;;;;;;;;;20.30;34.60;;;;;;5115036;28;19931;-71
2023/01/18 14:46:28;;;;;;;;;;;20.30;34.60;;;;;;5117415;28;19939;-71
2023/01/18 14:48:54;;;;;;;;;;;20.20;35.00;;;;;;5114767;28;20450;-71
2023/01/18 14:51:21;;;;;;;;;;;20.20;34.80;;;;;;5078035;28;19925;-71
2023/01/18 14:53:51;;;;;;;;;;;20.10;34.80;;;;;;5118309;28;19948;-70
2023/01/18 14:56:19;;;;;;;;;;;20.10;34.90;;;;;;5118861;28;19935;-70
2023/01/18 14:58:52;;;;;;;;;;;20.00;34.90;;;;;;5087469;28;20001;-70
2023/01/18 15:04:22;;;;;;;;;;;19.90;35.00;;;;;;5108311;27;19937;-68
2023/01/18 15:06:51;;;;;;;;;;;19.80;35.10;;;;;;5142427;27;19924;-71
2023/01/18 15:09:18;;;;;;;;;;;19.70;35.20;;;;;;5107835;28;20407;-68
2023/01/18 15:11:47;;;;;;;;;;;19.70;35.30;;;;;;5106742;28;19927;-68
2023/01/18 15:14:17;;;;;;;;;;;19.60;35.40;;;;;;5108341;28;19960;-68
2023/01/18 15:16:43;;;;;;;;;;;19.60;35.40;;;;;;5107587;28;19927;-68
2023/01/18 15:19:13;;;;;;;;;;;19.40;35.40;;;;;;5107787;28;20002;-68
2023/01/18 15:21:38;;;;;;;;;;;19.40;35.50;;;;;;5107166;28;20011;-68
2023/01/18 15:26:46;;;;;;;;;;;19.30;35.70;;;;;;5109203;27;19912;-69
2023/01/18 15:29:14;;;;;;;;;;;19.20;35.80;;;;;;5107659;28;19966;-69
2023/01/18 15:31:56;;;;;;;;;;;19.20;35.90;;;;;;5107171;28;20390;-67
2023/01/18 15:34:30;;;;;;;;;;;19.10;36.00;;;;;;5087940;28;20375;-69
2023/01/18 15:36:57;;;;;;;;;;;19.10;36.00;;;;;;5087362;28;19963;-68
2023/01/18 15:39:22;;;;;;;;;;;19.00;36.10;;;;;;5087480;28;19920;-69
2023/01/18 15:41:49;;;;;;;;;;;19.00;36.20;;;;;;5100245;28;19920;-68
2023/01/18 15:44:34;;;;;;;;;;;18.90;36.20;;;;;;5108580;28;19966;-68
2023/01/18 15:47:00;;;;;;;;;;;18.90;36.20;;;;;;5108790;28;19920;-69
2023/01/18 15:49:26;;;;;;;;;;;18.90;36.30;;;;;;5107651;28;19924;-68
2023/01/18 15:51:51;;;;;;;;;;;18.90;36.40;;;;;;5106846;28;19965;-68
2023/01/18 15:54:19;;;;;;;;;;;18.80;36.40;;;;;;5107190;28;19920;-68
2023/01/18 15:56:45;;;;;;;;;;;18.80;36.50;;;;;;5108425;28;20438;-69
2023/01/18 15:59:12;;;;;;;;;;;18.70;36.50;;;;;;5107680;28;19966;-68
2023/01/18 16:01:37;;;;;;;;;;;18.70;36.60;;;;;;5108197;28;19951;-69
2023/01/18 16:04:18;;;;;;;;;;;18.70;36.60;;;;;;5107868;28;20013;-68
2023/01/18 16:06:44;;;;;;;;;;;18.60;36.60;;;;;;5107463;28;20283;-68
2023/01/18 16:12:08;;;;;;;;;;;18.50;36.70;;;;;;5170341;27;20010;-68
2023/01/18 16:14:34;;;;;;;;;;;18.50;36.80;;;;;;5152828;27;20364;-69
2023/01/18 16:17:05;;;;;;;;;;;18.50;36.80;;;;;;5152482;27;20313;-68
2023/01/18 16:22:26;;;;;;;;;;;18.40;36.90;;;;;;5126370;27;1865073;-68
2023/01/18 16:24:54;;;;;;;;;;;18.40;37.00;;;;;;5172997;27;19991;-68
2023/01/18 16:27:21;;;;;;;;;;;18.30;36.90;;;;;;5173855;27;19918;-68
2023/01/18 16:29:49;;;;;;;;;;;18.30;37.00;;;;;;5173015;27;19919;-69
2023/01/18 16:32:27;;;;;;;;;;;18.30;37.00;;;;;;5191317;27;19918;-69
2023/01/18 16:34:53;;;;;;;;;;;18.30;37.00;;;;;;5173700;27;19961;-69